createdAt,value
2017-07-01T00:00:38.466Z,0
2017-07-01T00:05:33.865Z,0
2017-07-01T00:10:29.797Z,0
2017-07-01T00:15:25.963Z,0
2017-07-01T00:20:22.845Z,0
2017-07-01T00:25:18.105Z,0
2017-07-01T00:30:13.569Z,0
2017-07-01T00:35:09.339Z,0
2017-07-01T00:40:05.124Z,0
2017-07-01T00:45:00.835Z,0
2017-07-01T00:49:56.805Z,0
2017-07-01T00:54:52.662Z,0
2017-07-01T00:59:48.547Z,0
2017-07-01T01:04:44.463Z,0
2017-07-01T01:09:40.385Z,0
2017-07-01T01:14:36.700Z,0
2017-07-01T01:19:32.427Z,0
2017-07-01T01:24:27.922Z,0
2017-07-01T01:29:24.297Z,0
2017-07-01T01:34:20.002Z,0
2017-07-01T01:39:15.875Z,0
2017-07-01T01:44:11.741Z,0
2017-07-01T01:49:08.425Z,0
2017-07-01T01:54:04.361Z,0
2017-07-01T01:59:00.150Z,0
2017-07-01T02:03:56.773Z,0
2017-07-01T02:08:53.229Z,0
2017-07-01T02:13:48.781Z,0
2017-07-01T02:18:44.445Z,0
2017-07-01T02:23:40.347Z,0
2017-07-01T02:28:36.398Z,0
2017-07-01T02:33:31.896Z,0
2017-07-01T02:38:28.699Z,0
2017-07-01T02:43:24.534Z,0
2017-07-01T02:48:20.306Z,4
2017-07-01T02:53:16.147Z,4
2017-07-01T02:58:11.778Z,8
2017-07-01T03:03:07.586Z,16
2017-07-01T03:08:04.444Z,20
2017-07-01T03:12:59.747Z,24
2017-07-01T03:17:55.524Z,52
2017-07-01T03:22:51.260Z,76
2017-07-01T03:27:48.317Z,100
2017-07-01T03:32:43.727Z,92
2017-07-01T03:37:40.538Z,152
2017-07-01T03:42:37.101Z,148
2017-07-01T03:47:33.645Z,260
2017-07-01T03:52:29.338Z,176
2017-07-01T03:57:26.186Z,200
2017-07-01T04:02:21.883Z,256
2017-07-01T04:07:18.239Z,208
2017-07-01T04:12:14.212Z,220
2017-07-01T04:17:10.897Z,376
2017-07-01T04:22:06.667Z,624
2017-07-01T04:27:02.816Z,464
2017-07-01T04:31:58.804Z,376
2017-07-01T04:36:54.601Z,396
2017-07-01T04:41:50.639Z,532
2017-07-01T04:46:48.095Z,564
2017-07-01T04:51:43.622Z,800
2017-07-01T04:56:39.639Z,920
2017-07-01T05:01:35.899Z,736
2017-07-01T05:06:31.656Z,1028
2017-07-01T05:11:27.360Z,1364
2017-07-01T05:16:23.082Z,1076
2017-07-01T05:21:18.981Z,1388
2017-07-01T05:26:14.746Z,1492
2017-07-01T05:31:11.500Z,1220
2017-07-01T05:36:08.173Z,1092
2017-07-01T05:41:03.408Z,1224
2017-07-01T05:45:59.625Z,1104
2017-07-01T05:50:56.808Z,1708
2017-07-01T05:55:53.361Z,1816
2017-07-01T06:00:49.839Z,1224
2017-07-01T06:05:46.444Z,1496
2017-07-01T06:10:42.004Z,1892
2017-07-01T06:15:37.868Z,1712
2017-07-01T06:20:34.694Z,2308
2017-07-01T06:25:30.488Z,3644
2017-07-01T06:30:27.046Z,6004
2017-07-01T06:35:23.045Z,5552
2017-07-01T06:40:18.969Z,3408
2017-07-01T06:45:14.794Z,3996
2017-07-01T06:50:10.687Z,2340
2017-07-01T06:55:06.448Z,2648
2017-07-01T07:00:02.577Z,3476
2017-07-01T07:04:59.578Z,2440
2017-07-01T07:09:55.090Z,4096
2017-07-01T07:14:51.315Z,4496
2017-07-01T07:19:47.400Z,4156
2017-07-01T07:24:44.795Z,3560
2017-07-01T07:29:40.755Z,4248
2017-07-01T07:34:36.582Z,4928
2017-07-01T07:39:33.567Z,6792
2017-07-01T07:44:29.254Z,5432
2017-07-01T07:49:24.995Z,4284
2017-07-01T07:54:21.012Z,7960
2017-07-01T07:59:18.306Z,7604
2017-07-01T08:04:14.502Z,7736
2017-07-01T08:09:10.653Z,6284
2017-07-01T08:14:06.433Z,6252
2017-07-01T08:19:02.386Z,7660
2017-07-01T08:23:59.561Z,12212
2017-07-01T08:28:55.463Z,6952
2017-07-01T08:33:51.279Z,5236
2017-07-01T08:38:46.830Z,8872
2017-07-01T08:43:42.775Z,9176
2017-07-01T08:48:39.327Z,5112
2017-07-01T08:53:34.614Z,7420
2017-07-01T08:58:31.008Z,5184
2017-07-01T09:03:26.686Z,2836
2017-07-01T09:08:22.330Z,1732
2017-07-01T09:13:17.539Z,3888
2017-07-01T09:18:13.528Z,4476
2017-07-01T09:23:09.518Z,5452
2017-07-01T09:28:05.241Z,6772
2017-07-01T09:33:01.311Z,5536
2017-07-01T09:37:57.082Z,3584
2017-07-01T09:42:54.058Z,2956
2017-07-01T09:47:49.553Z,5392
2017-07-01T09:52:45.359Z,5328
2017-07-01T09:57:41.344Z,9112
2017-07-01T10:02:37.481Z,10244
2017-07-01T10:07:33.673Z,13448
2017-07-01T10:12:31.038Z,14712
2017-07-01T10:17:27.091Z,12076
2017-07-01T10:22:23.113Z,11148
2017-07-01T10:27:18.978Z,8808
2017-07-01T10:32:15.565Z,8968
2017-07-01T10:37:10.832Z,4384
2017-07-01T10:42:06.713Z,5316
2017-07-01T10:47:03.406Z,5780
2017-07-01T10:51:58.588Z,5292
2017-07-01T10:56:54.463Z,4628
2017-07-01T11:01:50.139Z,5976
2017-07-01T11:06:45.876Z,4996
2017-07-01T11:11:42.777Z,6504
2017-07-01T11:16:39.762Z,5348
2017-07-01T11:21:35.490Z,5732
2017-07-01T11:26:33.686Z,8896
2017-07-01T11:31:30.247Z,14276
2017-07-01T11:36:26.590Z,12336
2017-07-01T11:41:22.508Z,6448
2017-07-01T11:46:18.226Z,4232
2017-07-01T11:51:13.885Z,5372
2017-07-01T11:56:09.741Z,5400
2017-07-01T12:01:05.600Z,8604
2017-07-01T12:06:01.711Z,12644
2017-07-01T12:10:58.149Z,9364
2017-07-01T12:15:53.890Z,7428
2017-07-01T12:20:50.047Z,6160
2017-07-01T12:25:45.950Z,4324
2017-07-01T12:30:41.723Z,2072
2017-07-01T12:35:37.263Z,3000
2017-07-01T12:40:34.093Z,4756
2017-07-01T12:45:29.584Z,2928
2017-07-01T12:50:25.373Z,2208
2017-07-01T12:55:21.190Z,1456
2017-07-01T13:00:17.223Z,2468
2017-07-01T13:05:13.091Z,4388
2017-07-01T13:10:08.914Z,7292
2017-07-01T13:15:04.991Z,10332
2017-07-01T13:20:01.409Z,6608
2017-07-01T13:24:57.243Z,2936
2017-07-01T13:29:52.751Z,2820
2017-07-01T13:34:48.493Z,4612
2017-07-01T13:39:44.258Z,4876
2017-07-01T13:44:40.076Z,4368
2017-07-01T13:49:36.018Z,2900
2017-07-01T13:54:31.679Z,2272
2017-07-01T13:59:27.772Z,2592
2017-07-01T14:04:23.514Z,3528
2017-07-01T14:09:19.616Z,3184
2017-07-01T14:14:15.456Z,2816
2017-07-01T14:19:10.780Z,3092
2017-07-01T14:24:06.831Z,4172
2017-07-01T14:29:03.319Z,3756
2017-07-01T14:34:00.166Z,4856
2017-07-01T14:38:56.390Z,5908
2017-07-01T14:43:52.389Z,4848
2017-07-01T14:48:48.325Z,7140
2017-07-01T14:53:44.660Z,5500
2017-07-01T14:58:40.546Z,3540
2017-07-01T15:03:36.181Z,4300
2017-07-01T15:08:32.440Z,3392
2017-07-01T15:13:28.330Z,3100
2017-07-01T15:18:24.120Z,4096
2017-07-01T15:23:19.935Z,6272
2017-07-01T15:28:15.963Z,5316
2017-07-01T15:33:11.742Z,4868
2017-07-01T15:38:07.554Z,3608
2017-07-01T15:43:04.453Z,4356
2017-07-01T15:48:00.060Z,8380
2017-07-01T15:52:56.633Z,9980
2017-07-01T15:57:52.838Z,9576
2017-07-01T16:02:48.875Z,7988
2017-07-01T16:07:45.775Z,5792
2017-07-01T16:12:42.391Z,3456
2017-07-01T16:17:37.917Z,5864
2017-07-01T16:22:34.040Z,6648
2017-07-01T16:27:30.124Z,4344
2017-07-01T16:32:25.982Z,2648
2017-07-01T16:37:21.690Z,2740
2017-07-01T16:42:17.309Z,2900
2017-07-01T16:47:14.222Z,4508
2017-07-01T16:52:09.956Z,4628
2017-07-01T16:57:05.832Z,3008
2017-07-01T17:02:03.049Z,3668
2017-07-01T17:06:59.275Z,2472
2017-07-01T17:11:55.619Z,2820
2017-07-01T17:16:51.339Z,2428
2017-07-01T17:21:47.121Z,2920
2017-07-01T17:26:42.896Z,2076
2017-07-01T17:31:39.689Z,2392
2017-07-01T17:36:36.114Z,1932
2017-07-01T17:41:32.524Z,1844
2017-07-01T17:46:28.792Z,1848
2017-07-01T17:51:24.491Z,2000
2017-07-01T17:56:20.615Z,1780
2017-07-01T18:01:16.414Z,1704
2017-07-01T18:06:12.349Z,1600
2017-07-01T18:11:08.543Z,1580
2017-07-01T18:16:04.485Z,1408
2017-07-01T18:21:00.488Z,1384
2017-07-01T18:25:56.377Z,1840
2017-07-01T18:30:52.192Z,1756
2017-07-01T18:35:48.040Z,1328
2017-07-01T18:40:43.963Z,1284
2017-07-01T18:45:39.872Z,1248
2017-07-01T18:50:36.920Z,1548
2017-07-01T18:55:33.683Z,1048
2017-07-01T19:00:29.335Z,936
2017-07-01T19:05:25.004Z,848
2017-07-01T19:10:20.878Z,796
2017-07-01T19:15:16.605Z,676
2017-07-01T19:20:12.381Z,576
2017-07-01T19:25:08.184Z,504
2017-07-01T19:30:03.978Z,420
2017-07-01T19:34:59.858Z,332
2017-07-01T19:39:55.598Z,252
2017-07-01T19:44:51.487Z,188
2017-07-01T19:49:48.413Z,140
2017-07-01T19:54:45.373Z,92
2017-07-01T19:59:40.904Z,64
2017-07-01T20:04:36.620Z,40
2017-07-01T20:09:32.832Z,24
2017-07-01T20:14:28.517Z,12
2017-07-01T20:19:25.446Z,8
2017-07-01T20:24:20.955Z,4
2017-07-01T20:29:16.980Z,0
2017-07-01T20:34:13.920Z,0
2017-07-01T20:39:10.070Z,0
2017-07-01T20:44:05.820Z,0
2017-07-01T20:49:01.760Z,0
2017-07-01T20:53:58.668Z,0
2017-07-01T20:58:55.449Z,0
2017-07-01T21:03:51.194Z,0
2017-07-01T21:08:47.790Z,0
2017-07-01T21:13:44.806Z,0
2017-07-01T21:18:41.639Z,0
2017-07-01T21:23:37.107Z,0
2017-07-01T21:28:32.915Z,0
2017-07-01T21:33:30.161Z,0
2017-07-01T21:38:26.248Z,0
2017-07-01T21:43:22.734Z,0
2017-07-01T21:48:18.847Z,0
2017-07-01T21:53:14.450Z,0
2017-07-01T21:58:10.429Z,0
2017-07-01T22:03:06.419Z,0
2017-07-01T22:08:02.660Z,0
2017-07-01T22:12:58.413Z,0
2017-07-01T22:17:54.241Z,0
2017-07-01T22:22:50.330Z,0
2017-07-01T22:27:45.981Z,0
2017-07-01T22:32:42.787Z,0
2017-07-01T22:37:38.184Z,0
2017-07-01T22:42:35.009Z,0
2017-07-01T22:47:30.633Z,0
2017-07-01T22:52:26.402Z,0
2017-07-01T22:57:23.070Z,0
2017-07-01T23:02:18.525Z,0
2017-07-01T23:07:14.998Z,0
2017-07-01T23:12:11.526Z,0
2017-07-01T23:17:07.109Z,0
2017-07-01T23:22:02.921Z,0
2017-07-01T23:26:58.913Z,0
2017-07-01T23:31:54.693Z,0
2017-07-01T23:36:51.402Z,0
2017-07-01T23:41:46.981Z,0
2017-07-01T23:46:42.724Z,0
2017-07-01T23:51:38.573Z,0
2017-07-01T23:56:35.388Z,0
